x

Cape Elizabeth- 45nm Nw Of Aberdeen, Wa (46041) Wave Buoy

1:50 - Sat 28th May 2016 All times are PDT. -7 hours from GMT.

  • Sig Wave height 6.9ft
  • Swell Direction
  • Peak Period 7s
  • Average Period 6s
  • Wind
    20mph, 25mph gusts
  • Sea Temp 55°f
  • Ar Temp 54°f
  • Sea Pressure 1016.2mb
  • Cape Elizabeth- 45nm Nw Of Aberdeen, Wa
  • Cape Elizabeth- 45nm Nw Of Aberdeen, Wa

More Historic Weather Station data

Upgrade to MSW Pro to gain access to the past 30 days of data for over 8000 Wavebouys and Weather Stations around the globe.

Join Pro

Comparision Forecast

View Surf forecast
   
Sáb 05/28 1:50 7ft 7s 6s 20 25 mph 1016.2mb 55f 54f
12:50 6ft 7s 5s 22 27 mph 1016.4mb 55f 54f
11:50 6ft 7s 5s 25 31 mph 1016.4mb 55f 54f
10:50 6ft 6s 5s 25 29 mph 1016.4mb 55f 54f
9:50 5.5ft 5s 5s 22 25 mph 1016.4mb 55f 53f
8:50 5ft 6s 5s 20 27 mph 1016.6mb 55f 53f
7:50 5ft 6s 5s 18 25 mph 1016.6mb 55f 54f
6:50 4.5ft 7s 5s 18 22 mph 1016.7mb 55f 55f
5:50 4.5ft 7s 5s 18 22 mph 1017.1mb 55f 55f
4:50 4.5ft 7s 5s 16 20 mph 1017.3mb 55f 55f
3:50 3.5ft 7s 5s 11 16 mph 1017.6mb 55f 54f
2:50 3.5ft 7s 5s 13 16 mph 1018.2mb 55f 53f
1:50 3.5ft 8s 6s 13 16 mph 1019mb 55f 52f
12:50 3.5ft 8s 6s 11
mph
1019.8mb 55f 53f
Sex 05/27 11:50 3.5ft 8s 5s 9 11 mph 1020.4mb 55f 54f
10:50 4ft 7s 6s 9 11 mph 1020.8mb 55f 54f
9:50 3.5ft 7s 5s 7 9 mph 1021mb 55f 54f
8:50 4.5ft 7s 5s 7 9 mph 1021mb 55f 54f
7:50 4.5ft 7s 5s 9 11 mph 1021.3mb 55f 54f
6:50 4.5ft 7s 6s 11 13 mph 1021.5mb 56f 54f
5:50 5ft 7s 6s 9 11 mph 1021.7mb 56f 54f
4:50 5ft 7s 6s 2 4 mph 1022.1mb 56f 53f
3:50 5.5ft 8s 6s 2 4 mph 1022.3mb 56f 54f
2:50 5ft 7s 6s 7 9 mph 1022.7mb 55f 52f
1:50 5ft 8s 6s 2 4 mph 1022.7mb 55f 51f
12:50 6ft 8s 6s 4
mph
1022.7mb 55f 53f
11:50 6ft 8s 6s 11 16 mph 1022.7mb 54f 51f
10:50 6.5ft 8s 6s 13 16 mph 1022.4mb 54f 50f
9:50 7ft 8s 6s 7 9 mph 1022.2mb 54f 54f
8:50 6.5ft 8s 6s 11 13 mph 1021.9mb 54f 53f
7:50 7ft 8s 6s 4 7 mph 1021.9mb 54f 52f
6:50 6.5ft 8s 6s 16 18 mph 1021.7mb 54f 52f
5:50 6.5ft 7s 6s 18 25 mph 1021.3mb 54f 52f
4:50 6ft 7s 6s 13 16 mph 1021.2mb 54f 51f
3:50 6ft 7s 6s 20 25 mph 1021.5mb 54f 52f
2:50 6ft 8s 6s 13 16 mph 1021.7mb 54f 52f
1:50 6ft 8s 6s 16 18 mph 1022mb 54f 53f
12:50 5.5ft 7s 6s 13 16 mph 1022.2mb 54f 53f
Qui 05/26 11:50 5.5ft 7s 6s 13 16 mph 1022.4mb 54f 54f
10:50 5.5ft 7s 6s 13 18 mph 1022.7mb 54f 54f
9:50 6ft 8s 6s 16 18 mph 1022.8mb 54f 53f
8:50 6ft 8s 6s 13 18 mph 1022.6mb 54f 54f
7:50 6.5ft 8s 6s 13 18 mph 1022.7mb 54f 53f
6:50 6ft 7s 6s 11 18 mph 1022.8mb 54f 53f
5:50 7ft 8s 6s 13 16 mph 1023.2mb 54f 54f
4:50 7ft 8s 6s 11 16 mph 1023.5mb 54f 54f
3:50 6.5ft 8s 6s 11 16 mph 1023.7mb 54f 53f
2:50 6ft 8s 6s 16 20 mph 1023.9mb 54f 53f
1:50 6ft 7s 6s 13 16 mph 1024mb 54f 53f
12:50 6ft 8s 6s 13 16 mph 1023.8mb 54f 53f
11:50 7ft 8s 6s 13 16 mph 1023.9mb 54f 53f
10:50 7ft 8s 6s 11 13 mph 1023.7mb 54f 53f
9:50 7ft 8s 6s 11 13 mph 1023.5mb 54f 51f
8:50 7ft 8s 6s 16 20 mph 1023.5mb 54f 53f
7:50 6ft 7s 6s 13 16 mph 1023.6mb 54f 51f
6:50 6ft 8s 6s 13 18 mph 1023.2mb 54f 53f
5:50 6ft 8s 6s 13 18 mph 1023mb 54f 53f
4:50 5.5ft 8s 5s 16 18 mph 1022.8mb 54f 53f
3:50 6ft 8s 6s 16 18 mph 1022.8mb 55f 54f
2:50 6ft 8s 6s 16 18 mph 1023.2mb 54f 54f
1:50 5.5ft 8s 6s 13 16 mph 1023.3mb 54f 54f
12:50 5ft 8s 6s 13 16 mph 1023.3mb 55f 54f
Qua 05/25 11:50 5.5ft 8s 6s 13 16 mph 1023.6mb 55f 54f
10:50 5ft 8s 6s 13 18 mph 1023.6mb 55f 54f
9:50 5ft 8s 6s 13 16 mph 1023.6mb 55f 54f
8:50 4.5ft 8s 5s 16 18 mph 1023.5mb 56f 55f
7:50 5ft 8s 6s 13 16 mph 1023.4mb 56f 55f
6:50 5.5ft 8s 6s 13 16 mph 1023.3mb 56f 55f
5:50 5.5ft 8s 6s 13 18 mph 1023.4mb 56f 55f
4:50 6ft 8s 6s 13 18 mph 1023.4mb 56f 55f
3:50 6ft 8s 6s 16 18 mph 1023.3mb 55f 54f
2:50 6ft 8s 6s 16 18 mph 1023.2mb 55f 54f
1:50 6ft 8s 6s 16 18 mph 1023mb 55f 54f
12:50 6ft 8s 6s 13 18 mph 1022.8mb 55f 54f
11:50 6ft 8s 6s 13 18 mph 1022.3mb 55f 54f
10:50 5ft 8s 6s 11 16 mph 1022mb 55f 54f
9:50 5.5ft 9s 6s 13 16 mph 1021.5mb 55f 54f
8:50 5ft 8s 6s 9 13 mph 1021mb 55f 54f
7:50 5ft 9s 6s 11 13 mph 1020.5mb 55f 54f
6:50 5ft 9s 6s 13 16 mph 1020.1mb 56f 54f
5:50 5ft 9s 6s 13 18 mph 1019.8mb 55f 54f
4:50 5ft 8s 6s 13 16 mph 1019.1mb 55f 54f
3:50 5ft 8s 6s 13 16 mph 1018.7mb 56f 54f
2:50 5ft 9s 6s 11 16 mph 1018.6mb 56f 55f
1:50 5.5ft 9s 6s 11 13 mph 1018.4mb 56f 55f
12:50 5ft 9s 6s 11 16 mph 1018.3mb 56f 55f
Ter 05/24 11:50 5ft 9s 7s 11 13 mph 1018.2mb 56f 55f
10:50 5ft 9s 7s 9 11 mph 1018.1mb 56f 55f